createdAt,value
2022-11-26T00:11:23.525Z,5.42206
2022-11-26T00:26:25.842Z,1.08441
2022-11-26T00:41:28.196Z,0
2022-11-26T00:56:35.088Z,0
2022-11-26T01:11:40.242Z,0
2022-11-26T01:26:42.699Z,0
2022-11-26T01:41:45.471Z,0
2022-11-26T01:56:47.885Z,0
2022-11-26T02:11:50.574Z,0
2022-11-26T02:26:53.236Z,0
2022-11-26T02:41:55.866Z,0
2022-11-26T02:56:58.756Z,0
2022-11-26T03:12:01.642Z,0
2022-11-26T03:27:04.592Z,0
2022-11-26T03:42:07.972Z,0
2022-11-26T03:57:10.401Z,0
2022-11-26T04:12:13.140Z,0
2022-11-26T04:27:15.925Z,0
2022-11-26T04:42:18.604Z,0
2022-11-26T04:57:21.097Z,0
2022-11-26T05:12:23.646Z,0
2022-11-26T05:27:26.025Z,0
2022-11-26T05:42:28.459Z,0
2022-11-26T05:57:31.471Z,0
2022-11-26T06:12:34.342Z,0
2022-11-26T06:27:36.718Z,0
2022-11-26T06:42:39.379Z,0
2022-11-26T06:57:42.452Z,0
2022-11-26T07:12:45.010Z,0
2022-11-26T07:27:47.526Z,0
2022-11-26T07:42:53.172Z,0
2022-11-26T07:57:56.080Z,0
2022-11-26T08:12:58.765Z,0
2022-11-26T08:28:01.770Z,0
2022-11-26T08:43:04.297Z,0
2022-11-26T08:58:06.809Z,0
2022-11-26T09:13:09.217Z,0
2022-11-26T09:28:11.491Z,0
2022-11-26T09:43:13.956Z,0
2022-11-26T09:58:17.734Z,0
2022-11-26T10:13:22.489Z,0
2022-11-26T10:28:24.852Z,0
2022-11-26T10:43:27.402Z,0
2022-11-26T10:58:29.655Z,0
2022-11-26T11:13:31.966Z,0
2022-11-26T11:28:34.460Z,0
2022-11-26T11:43:36.994Z,0
2022-11-26T11:58:39.314Z,0
2022-11-26T12:13:41.553Z,0
2022-11-26T12:28:48.264Z,0
2022-11-26T12:43:53.513Z,0
2022-11-26T12:58:56.006Z,0
2022-11-26T13:13:58.526Z,0
2022-11-26T13:29:00.764Z,0
2022-11-26T13:44:03.570Z,0
2022-11-26T13:59:06.034Z,0
2022-11-26T14:14:08.413Z,0
2022-11-26T14:29:10.624Z,0
2022-11-26T14:44:12.918Z,1.08441
2022-11-26T14:59:15.187Z,20.60381
2022-11-26T15:14:17.388Z,118.20083
2022-11-26T15:29:19.804Z,332.91425
2022-11-26T15:44:22.452Z,703.7829
2022-11-26T15:59:25.092Z,1252.495
2022-11-26T16:14:27.338Z,1483.47461
2022-11-26T16:29:29.558Z,1485.64343
2022-11-26T16:44:31.825Z,2130.86816
2022-11-26T16:59:34.058Z,2935.50122
2022-11-26T17:14:36.265Z,3079.72803
2022-11-26T17:29:42.453Z,3586.14795
2022-11-26T17:44:44.987Z,7881.50098
2022-11-26T17:59:47.267Z,9266.29395
2022-11-26T18:14:49.559Z,8143.92871
2022-11-26T18:29:51.829Z,11301.73438
2022-11-26T18:45:06.239Z,7801.25439
2022-11-26T19:00:08.608Z,6533.57764
2022-11-26T19:15:10.999Z,7487.85986
2022-11-26T19:30:13.431Z,8129.83105
2022-11-26T19:45:16.023Z,10065.50488
2022-11-26T20:00:18.799Z,12044.55566
2022-11-26T20:15:21.406Z,8138.50635
2022-11-26T20:30:23.872Z,4492.71582
2022-11-26T20:45:26.165Z,3595.90771
2022-11-26T21:00:28.376Z,3791.10181
2022-11-26T21:15:30.571Z,3491.8042
2022-11-26T21:30:33.176Z,2657.89209
2022-11-26T21:45:35.839Z,2100.50464
2022-11-26T22:00:38.605Z,1810.9668
2022-11-26T22:15:41.059Z,1649.38953
2022-11-26T22:30:43.326Z,1615.77283
2022-11-26T22:45:45.880Z,1741.56445
2022-11-26T23:00:48.305Z,1244.90417
2022-11-26T23:15:50.727Z,646.30914
2022-11-26T23:30:53.306Z,325.32336
2022-11-26T23:45:55.827Z,126.87612
